Kilkenny, Minnesota
Current Conditions -  °F | °C
As of 7:34 PM on Friday 24 Oct 2014 (Local Time) from KFBL Reporting Station
Clear Clear  
Wind Chill: 14°   Ceiling: Unl
Heat Index: 14°   Visibility: 10mi
Dew Point: 11°   Wind: 3mph
Humidity: 82%   Direction: 220°SW
Pressure: 29.89"   Gusts: NA
Location:  44.31°N, 93.57°W
Report Text: KFBL 250034Z AUTO 22003KT 10SM CLR 14/11 A2989 RMK AO2
Loading
Personal Weather Stations






























Interactive Weather Map
Tropical Storm Tracking
New forecast layout! Learn more

10-Day Weather Forecast

Advertisements
Track Severe Weather on mobile